Time;durP1;ratioP1;P1;durP2;ratioP2;P2;SDS_P1;SDS_P2;PMS_P1;PMS_P2;Temp;Humidity;BMP_temperature;BMP_pressure;BME280_temperature;BME280_humidity;BME280_pressure;Samples;Min_cycle;Max_cycle;Signal;HPM_P1;HPM_P2
2022/09/15 00:04:23;;;;;;;10.60;4.47;;;;;;;14.57;90.55;99137.08;3656071;79;98773;-86
2022/09/15 00:09:24;;;;;;;10.50;5.00;;;;;;;14.53;90.49;99134.20;3592915;79;98913;-87
2022/09/15 00:14:25;;;;;;;9.40;4.17;;;;;;;14.48;90.48;99136.90;3598464;79;98903;-87
2022/09/15 00:19:26;;;;;;;8.43;3.85;;;;;;;14.42;90.56;99139.23;3598204;79;98652;-87
2022/09/15 00:24:27;;;;;;;12.63;4.13;;;;;;;14.38;90.89;99131.64;3558062;78;98697;-87
2022/09/15 00:29:28;;;;;;;11.60;3.92;;;;;;;14.35;91.01;99124.98;3549895;79;98851;-86
2022/09/15 00:34:29;;;;;;;12.43;4.10;;;;;;;14.32;91.03;99128.60;3602319;80;98855;-86
2022/09/15 00:39:30;;;;;;;9.13;3.90;;;;;;;14.29;91.20;99135.61;3607273;79;98921;-87
2022/09/15 00:44:56;;;;;;;11.47;3.83;;;;;;;14.27;91.30;99146.31;3596780;79;98615;-87
2022/09/15 00:50:03;;;;;;;6.97;3.45;;;;;;;14.22;91.26;99133.03;3558369;78;98682;-86
2022/09/15 00:55:18;;;;;;;10.08;3.40;;;;;;;14.18;91.43;99128.14;3560708;78;98704;-86
2022/09/15 01:00:23;;;;;;;13.85;3.85;;;;;;;14.15;91.61;99133.94;3586846;79;98976;-86
2022/09/15 01:05:41;;;;;;;10.70;4.25;;;;;;;14.11;91.64;99136.62;3587688;79;98939;-86
2022/09/15 01:10:41;;;;;;;7.20;3.58;;;;;;;14.08;91.53;99131.94;3586400;80;98912;-86
2022/09/15 01:16:32;;;;;;;9.50;3.53;;;;;;;14.04;91.84;99127.09;3591997;80;98710;-86
2022/09/15 01:21:44;;;;;;;13.70;3.47;;;;;;;14.00;91.94;99121.64;3582591;80;98697;-86
2022/09/15 01:27:35;;;;;;;10.95;4.47;;;;;;;13.94;91.96;99123.96;3592567;79;98903;-86
2022/09/15 01:33:04;;;;;;;9.13;3.70;;;;;;;13.93;92.14;99118.26;3590838;79;98833;-86
2022/09/15 01:38:33;;;;;;;8.78;4.20;;;;;;;13.88;92.01;99122.92;3587186;79;98831;-86
2022/09/15 01:43:45;;;;;;;13.93;3.95;;;;;;;13.84;91.96;99116.71;3596601;79;98876;-87
2022/09/15 01:48:48;;;;;;;7.42;3.60;;;;;;;13.80;92.38;99127.83;3596192;79;98762;-86
2022/09/15 01:53:52;;;;;;;10.03;4.20;;;;;;;13.78;92.35;99125.31;3584758;79;98649;-86
2022/09/15 01:58:53;;;;;;;11.20;4.20;;;;;;;13.73;92.41;99123.09;3598578;79;98980;-86
2022/09/15 02:04:00;;;;;;;9.27;3.70;;;;;;;13.71;92.51;99122.72;3594984;79;98813;-86
2022/09/15 02:09:14;;;;;;;8.13;3.92;;;;;;;13.68;92.52;99124.36;3599678;79;98615;-86
2022/09/15 02:14:23;;;;;;;10.87;4.17;;;;;;;13.66;92.71;99130.14;3534247;79;98633;-86
2022/09/15 02:19:35;;;;;;;9.55;4.10;;;;;;;13.62;92.48;99127.45;3559051;79;99286;-85
2022/09/15 02:24:44;;;;;;;8.70;4.10;;;;;;;13.60;92.86;99128.50;3604897;78;99120;-86
2022/09/15 02:29:47;;;;;;;9.25;4.12;;;;;;;13.58;92.99;99128.75;3534732;80;98675;-86
2022/09/15 02:34:50;;;;;;;12.75;3.95;;;;;;;13.56;93.04;99124.23;3539691;82;98636;-86
2022/09/15 02:39:57;;;;;;;8.70;3.55;;;;;;;13.53;93.09;99124.48;3575369;80;100665;-86
2022/09/15 02:45:00;;;;;;;7.50;3.45;;;;;;;13.51;92.98;99126.91;3547175;81;98843;-86
2022/09/15 02:50:01;;;;;;;11.15;4.30;;;;;;;13.47;93.03;99127.58;3605478;79;98713;-86
2022/09/15 02:55:02;;;;;;;11.65;4.42;;;;;;;13.45;93.05;99125.86;3597053;78;98869;-86
2022/09/15 03:00:12;;;;;;;12.30;4.00;;;;;;;13.43;93.33;99119.98;3574530;81;98797;-86
2022/09/15 03:05:16;;;;;;;10.50;3.70;;;;;;;13.41;93.42;99117.47;3604104;79;99166;-86
2022/09/15 03:10:17;;;;;;;7.85;3.52;;;;;;;13.38;93.35;99120.48;3575205;80;98920;-86
2022/09/15 03:15:22;;;;;;;8.33;3.45;;;;;;;13.35;93.29;99122.70;3605848;78;98487;-86
2022/09/15 03:20:27;;;;;;;9.83;3.13;;;;;;;13.33;93.44;99118.81;3540447;81;98558;-87
2022/09/15 03:25:28;;;;;;;7.95;3.33;;;;;;;13.32;93.51;99118.64;3544528;81;98810;-86
2022/09/15 03:30:29;;;;;;;8.13;3.77;;;;;;;13.27;93.30;99114.99;3609899;79;99063;-87
2022/09/15 03:35:30;;;;;;;10.23;3.87;;;;;;;13.25;93.59;99111.89;3543677;81;98749;-86
2022/09/15 03:40:32;;;;;;;11.10;4.23;;;;;;;13.21;93.60;99118.08;3544428;81;98933;-87
2022/09/15 03:45:33;;;;;;;11.47;3.93;;;;;;;13.17;93.68;99110.45;3580066;81;99173;-86
2022/09/15 03:50:34;;;;;;;11.63;3.47;;;;;;;13.13;93.59;99107.77;3609910;78;98849;-87
2022/09/15 03:55:35;;;;;;;10.57;3.80;;;;;;;13.10;93.60;99111.41;3607322;79;99079;-87
2022/09/15 04:00:36;;;;;;;8.37;3.73;;;;;;;13.08;93.81;99114.41;3607407;78;99175;-86
2022/09/15 04:05:37;;;;;;;11.48;5.15;;;;;;;13.06;93.88;99118.97;3605919;79;98898;-86
2022/09/15 04:10:40;;;;;;;11.90;4.67;;;;;;;13.04;93.96;99115.84;3547629;81;99072;-86
2022/09/15 04:15:41;;;;;;;9.57;4.67;;;;;;;13.03;94.18;99120.42;3652456;78;99008;-86
2022/09/15 04:20:41;;;;;;;14.70;4.83;;;;;;;13.01;93.99;99129.12;3584492;79;98736;-86
2022/09/15 04:25:42;;;;;;;13.54;5.66;;;;;;;12.99;94.23;99126.02;3583858;79;98974;-86
2022/09/15 04:30:43;;;;;;;8.30;3.97;;;;;;;12.99;94.28;99128.78;3585173;79;98861;-86
2022/09/15 04:35:44;;;;;;;11.90;3.97;;;;;;;12.99;94.32;99130.16;3660775;79;98826;-86
2022/09/15 04:40:45;;;;;;;10.63;3.33;;;;;;;12.97;94.63;99124.89;3585761;79;104782;-86
2022/09/15 04:45:46;;;;;;;11.20;3.90;;;;;;;12.94;94.53;99126.48;3658173;79;99129;-86
2022/09/15 04:50:47;;;;;;;10.48;3.80;;;;;;;12.94;94.57;99127.86;3655169;79;98936;-86
2022/09/15 04:55:48;;;;;;;8.50;3.63;;;;;;;12.96;94.73;99130.20;3667181;78;98854;-86
2022/09/15 05:00:49;;;;;;;9.73;4.03;;;;;;;12.86;95.31;99105.72;3583917;79;102976;-85
2022/09/15 05:05:50;;;;;;;8.00;3.10;;;;;;;12.86;95.31;99105.72;3657036;77;103309;-86
2022/09/15 05:10:52;;;;;;;10.68;3.40;;;;;;;12.99;94.90;99129.38;3667667;78;99055;-86
2022/09/15 05:15:53;;;;;;;7.90;3.80;;;;;;;12.99;94.96;99126.02;3608530;79;99011;-86
2022/09/15 05:21:00;;;;;;;7.47;3.37;;;;;;;13.03;94.96;99125.95;3606833;78;98627;-86
2022/09/15 05:26:05;;;;;;;10.60;3.62;;;;;;;13.05;95.01;99122.15;3534821;80;98626;-87
2022/09/15 05:31:11;;;;;;;8.15;3.50;;;;;;;13.06;95.42;99131.41;3566446;80;98949;-87
2022/09/15 05:36:14;;;;;;;10.88;3.77;;;;;;;13.09;95.37;99131.91;3619235;78;98841;-88
2022/09/15 05:41:17;;;;;;;9.78;3.30;;;;;;;13.16;95.56;99131.80;3610079;78;99008;-87
2022/09/15 05:46:19;;;;;;;8.58;3.90;;;;;;;13.21;96.33;99125.78;3579546;80;98841;-86
2022/09/15 05:51:20;;;;;;;12.63;3.72;;;;;;;13.30;96.21;99132.11;3607377;78;98816;-86
2022/09/15 05:56:22;;;;;;;10.10;3.60;;;;;;;13.39;96.28;99130.92;3577074;80;98774;-87
2022/09/15 06:01:26;;;;;;;12.63;4.00;;;;;;;13.49;96.16;99136.83;3535623;81;99061;-87
2022/09/15 06:06:30;;;;;;;12.35;3.67;;;;;;;13.60;96.21;99139.55;3665779;77;99145;-87
2022/09/15 06:11:34;;;;;;;12.58;4.12;;;;;;;13.71;96.15;99141.48;3568891;79;99069;-87
2022/09/15 06:16:35;;;;;;;10.20;3.80;;;;;;;13.84;96.13;99140.22;3562015;78;99083;-86
2022/09/15 06:21:36;;;;;;;9.50;3.50;;;;;;;13.97;95.84;99141.88;3495202;82;99149;-88
2022/09/15 06:26:37;;;;;;;10.77;3.27;;;;;;;14.09;95.62;99135.66;3515582;82;98819;-86
2022/09/15 06:31:38;;;;;;;11.87;4.10;;;;;;;14.23;95.48;99135.34;3559792;80;99145;-86
2022/09/15 06:36:39;;;;;;;12.00;3.77;;;;;;;14.38;95.43;99142.72;3494548;82;98934;-86
2022/09/15 06:41:40;;;;;;;11.57;3.30;;;;;;;14.54;94.79;99138.52;3494297;82;108937;-86
2022/09/15 06:46:41;;;;;;;9.83;3.20;;;;;;;14.68;94.46;99137.58;3490472;82;99122;-85
2022/09/15 06:51:41;;;;;;;9.37;3.00;;;;;;;14.86;93.70;99146.78;3489117;82;99066;-85
2022/09/15 06:56:43;;;;;;;8.63;3.40;;;;;;;15.02;93.23;99142.59;3560715;79;98696;-88
2022/09/15 07:01:43;;;;;;;9.80;3.47;;;;;;;15.17;92.05;99149.31;3557381;80;98894;-86
2022/09/15 07:06:45;;;;;;;10.40;3.07;;;;;;;15.32;91.81;99148.46;3561587;80;98896;-86
2022/09/15 07:11:45;;;;;;;11.70;3.22;;;;;;;15.45;91.17;99154.08;3600075;77;99299;-85
2022/09/15 07:16:46;;;;;;;9.43;3.07;;;;;;;15.56;90.63;99153.95;3609310;78;98976;-86
2022/09/15 07:21:47;;;;;;;9.70;2.93;;;;;;;15.63;89.63;99159.88;3621025;78;98669;-84
2022/09/15 07:26:48;;;;;;;11.10;2.83;;;;;;;15.66;89.11;99147.91;3624730;77;99026;-85
2022/09/15 07:31:49;;;;;;;7.87;2.23;;;;;;;15.73;88.71;99151.85;3548042;81;98986;-87
2022/09/15 07:36:50;;;;;;;6.87;2.47;;;;;;;15.80;88.34;99152.42;3596022;80;31658;-86
2022/09/15 07:41:51;;;;;;;10.17;3.10;;;;;;;15.87;88.14;99156.36;3596673;80;98611;-85
2022/09/15 07:46:52;;;;;;;8.95;2.52;;;;;;;15.95;88.10;99162.47;3654905;79;31676;-87
2022/09/15 07:51:53;;;;;;;8.13;1.93;;;;;;;16.06;86.71;99160.94;3579767;81;98493;-85
2022/09/15 07:56:54;;;;;;;6.76;1.90;;;;;;;16.19;86.26;99157.53;3612108;80;27912;-86
2022/09/15 08:01:55;;;;;;;9.37;2.03;;;;;;;16.30;86.11;99154.44;3647769;80;98718;-84
2022/09/15 08:06:56;;;;;;;9.23;2.27;;;;;;;16.44;84.24;99158.95;3629687;80;25982;-86
2022/09/15 08:11:57;;;;;;;4.97;1.60;;;;;;;16.58;83.35;99159.84;3630729;80;98980;-86
2022/09/15 08:17:00;;;;;;;5.27;1.93;;;;;;;16.74;83.93;99162.48;3644833;80;25959;-86
2022/09/15 08:22:01;;;;;;;5.47;1.73;;;;;;;16.92;83.62;99161.28;3626076;79;99323;-84
2022/09/15 08:27:03;;;;;;;7.80;1.77;;;;;;;17.10;82.35;99157.26;3579002;81;30824;-83
2022/09/15 08:32:04;;;;;;;6.43;1.60;;;;;;;17.35;82.01;99162.72;3569264;81;98869;-89
2022/09/15 08:37:05;;;;;;;8.07;2.20;;;;;;;17.59;80.64;99161.65;3581674;81;27996;-88
2022/09/15 08:42:11;;;;;;;8.30;1.72;;;;;;;17.89;79.56;99149.78;3575549;81;98757;-86
2022/09/15 08:47:26;;;;;;;6.45;2.27;;;;;;;18.25;78.56;99155.51;3577894;81;31757;-86
2022/09/15 08:52:35;;;;;;;5.53;1.87;;;;;;;18.82;78.05;99157.52;3613080;80;98325;-86
2022/09/15 08:57:37;;;;;;;5.33;1.62;;;;;;;19.46;77.41;99153.54;3691939;79;31628;-87
2022/09/15 09:03:14;;;;;;;10.43;1.92;;;;;;;20.17;75.51;99160.20;3674134;79;98385;-85
2022/09/15 09:08:48;;;;;;;6.75;1.77;;;;;;;20.81;73.22;99160.02;3658322;79;31694;-87
2022/09/15 09:14:07;;;;;;;8.30;1.67;;;;;;;21.07;72.40;99166.06;3670925;79;98589;-85
2022/09/15 09:19:28;;;;;;;4.78;1.62;;;;;;;21.59;69.21;99150.53;3692630;79;31671;-86
2022/09/15 09:24:46;;;;;;;6.17;1.80;;;;;;;21.70;68.04;99148.70;3713186;78;98584;-86
2022/09/15 09:29:57;;;;;;;8.00;1.62;;;;;;;21.70;63.87;99157.11;3680662;79;31681;-85
2022/09/15 09:35:06;;;;;;;5.75;1.35;;;;;;;22.17;66.30;99148.49;3636865;78;98518;-86
2022/09/15 09:40:14;;;;;;;6.55;1.75;;;;;;;22.81;64.17;99145.00;3577664;81;31659;-87
2022/09/15 09:45:17;;;;;;;6.20;1.82;;;;;;;23.05;62.69;99134.97;3568620;81;98508;-88
2022/09/15 09:50:44;;;;;;;3.98;1.40;;;;;;;23.11;57.09;99137.20;3638764;79;25853;-86
2022/09/15 09:55:45;;;;;;;8.90;1.37;;;;;;;23.07;60.76;99138.83;3569004;81;98475;-86
2022/09/15 10:00:47;;;;;;;3.20;1.30;;;;;;;23.25;59.61;99129.34;3687249;79;33081;-90
2022/09/15 10:06:17;;;;;;;4.17;1.25;;;;;;;23.15;58.53;99133.56;3691540;79;98376;-88
2022/09/15 10:11:18;;;;;;;4.28;1.00;;;;;;;23.18;59.25;99129.16;3676527;79;98617;-88
2022/09/15 10:16:21;;;;;;;4.60;1.07;;;;;;;22.92;57.38;99131.11;3685499;79;32329;-86
2022/09/15 10:21:23;;;;;;;6.10;1.47;;;;;;;22.69;57.51;99128.50;3672179;79;98304;-87
2022/09/15 10:26:33;;;;;;;3.12;1.10;;;;;;;22.68;57.39;99124.91;3693133;79;32211;-86
2022/09/15 10:31:35;;;;;;;3.33;1.40;;;;;;;22.54;58.21;99117.34;3681565;79;98340;-86
2022/09/15 10:36:36;;;;;;;6.22;1.40;;;;;;;22.42;57.59;99117.64;3689878;79;26596;-94
2022/09/15 10:41:42;;;;;;;2.83;1.10;;;;;;;22.12;58.87;99123.20;3683893;79;98757;-88
2022/09/15 10:47:11;;;;;;;8.73;1.60;;;;;;;21.86;58.45;99113.86;3682220;79;31707;-92
2022/09/15 10:52:58;;;;;;;4.85;1.35;;;;;;;21.58;58.67;99122.39;3676884;79;98759;-88
2022/09/15 10:58:07;;;;;;;3.12;1.30;;;;;;;21.43;59.39;99123.00;3691892;79;26508;-85
2022/09/15 11:03:26;;;;;;;5.95;1.30;;;;;;;21.44;60.44;99114.12;3637679;79;98379;-89
2022/09/15 11:08:59;;;;;;;7.58;1.55;;;;;;;21.40;60.40;99119.13;3614810;80;31695;-87
2022/09/15 11:14:32;;;;;;;5.90;1.80;;;;;;;21.17;60.37;99107.39;3569530;81;98796;-88
2022/09/15 11:20:19;;;;;;;7.37;1.80;;;;;;;21.06;61.29;99121.77;3704768;79;31634;-87
2022/09/15 11:25:27;;;;;;;4.72;1.50;;;;;;;21.11;62.10;99132.30;3631368;80;98259;-87
2022/09/15 11:30:36;;;;;;;3.33;1.40;;;;;;;21.04;61.21;99126.44;3569114;81;32201;-86
2022/09/15 11:35:48;;;;;;;4.70;1.52;;;;;;;20.99;62.91;99134.73;3565283;81;98383;-88
2022/09/15 11:41:14;;;;;;;6.60;1.60;;;;;;;20.96;62.71;99132.27;3575039;81;31654;-87
2022/09/15 11:46:26;;;;;;;3.95;1.45;;;;;;;20.95;61.46;99125.75;3603906;80;25953;-86
2022/09/15 11:51:32;;;;;;;4.17;1.10;;;;;;;20.84;61.89;99126.89;3629858;80;98757;-87
2022/09/15 11:56:41;;;;;;;5.00;1.12;;;;;;;20.77;60.76;99121.02;3633729;80;31710;-87
2022/09/15 12:02:06;;;;;;;3.22;1.22;;;;;;;20.69;58.57;99121.25;3605416;80;98363;-89
2022/09/15 12:07:24;;;;;;;2.75;1.05;;;;;;;20.67;59.33;99122.36;3640264;80;31678;-89
2022/09/15 12:12:25;;;;;;;3.40;0.95;;;;;;;20.73;58.86;99128.84;3596094;81;98424;-86
2022/09/15 12:18:06;;;;;;;2.80;1.00;;;;;;;20.49;58.41;99139.87;3694154;79;30373;-86
2022/09/15 12:23:39;;;;;;;3.22;1.00;;;;;;;20.33;57.89;99139.62;3677611;79;98418;-87
2022/09/15 12:28:54;;;;;;;1.67;0.93;;;;;;;20.40;58.28;99124.53;3689983;79;31637;-86
2022/09/15 12:34:03;;;;;;;2.50;1.00;;;;;;;20.42;59.09;99127.01;3687302;79;98740;-87
2022/09/15 12:39:31;;;;;;;3.37;0.70;;;;;;;20.60;58.99;99126.13;3699214;79;32301;-88
2022/09/15 12:44:36;;;;;;;4.12;1.00;;;;;;;20.60;57.69;99130.33;3682730;79;98504;-89
2022/09/15 12:49:42;;;;;;;1.82;0.75;;;;;;;20.43;56.54;99139.73;3702588;79;25933;-88
2022/09/15 12:54:47;;;;;;;2.17;0.60;;;;;;;20.36;56.12;99133.70;3693082;79;98690;-95
2022/09/15 12:59:48;;;;;;;2.27;0.70;;;;;;;20.35;55.10;99139.16;3695946;78;26558;-89
2022/09/15 13:04:54;;;;;;;1.95;0.72;;;;;;;20.17;53.91;99112.07;3694564;78;98441;-90
2022/09/15 13:10:12;;;;;;;3.52;0.90;;;;;;;20.31;54.97;99137.14;3700710;79;26281;-90
2022/09/15 13:15:16;;;;;;;2.22;0.50;;;;;;;20.23;55.09;99133.95;3688430;79;98099;-87
2022/09/15 13:20:23;;;;;;;2.37;0.70;;;;;;;20.18;53.50;99133.80;3704261;79;31638;-91
2022/09/15 13:25:28;;;;;;;1.53;0.77;;;;;;;20.09;53.84;99133.22;3631548;80;98551;-94
2022/09/15 13:30:49;;;;;;;1.32;0.60;;;;;;;20.15;53.95;99128.54;3643018;78;31679;-89
2022/09/15 13:36:31;;;;;;;4.65;0.88;;;;;;;20.15;53.62;99115.19;3631481;80;98313;-90
2022/09/15 13:42:02;;;;;;;2.87;0.82;;;;;;;20.13;53.18;99123.27;3629527;80;98442;-89
2022/09/15 13:47:37;;;;;;;5.20;1.00;;;;;;;20.08;52.96;99114.14;3637763;80;31946;-92
2022/09/15 13:53:20;;;;;;;4.67;0.90;;;;;;;20.06;54.44;99108.23;3566460;82;98809;-89
2022/09/15 13:58:25;;;;;;;3.10;0.90;;;;;;;20.12;53.61;99116.90;3602294;80;31646;-89
2022/09/15 14:03:46;;;;;;;4.37;0.90;;;;;;;20.12;53.07;99104.97;3587102;79;98377;-87
2022/09/15 14:08:51;;;;;;;3.72;1.02;;;;;;;20.04;52.04;99107.30;3533418;82;32296;-89
2022/09/15 14:13:53;;;;;;;2.17;0.95;;;;;;;20.04;53.84;99110.09;3620831;78;98646;-89
2022/09/15 14:18:59;;;;;;;4.70;1.57;;;;;;;20.01;54.37;99110.27;3694281;79;31717;-89
2022/09/15 14:24:05;;;;;;;4.58;0.72;;;;;;;19.84;53.08;99104.27;3679897;79;98693;-89
2022/09/15 14:29:08;;;;;;;4.78;1.00;;;;;;;19.73;54.05;99101.20;3674938;79;31680;-89
2022/09/15 14:34:22;;;;;;;5.65;1.00;;;;;;;19.67;53.72;99098.90;3615241;79;98713;-88
2022/09/15 14:39:23;;;;;;;2.20;1.17;;;;;;;19.54;54.41;99091.35;3696385;79;33123;-89
2022/09/15 14:44:39;;;;;;;5.72;1.40;;;;;;;19.44;53.95;99087.64;3689002;79;98343;-89
2022/09/15 14:49:40;;;;;;;2.98;1.00;;;;;;;19.45;54.37;99088.57;3691252;79;26457;-91
2022/09/15 14:54:41;;;;;;;2.12;1.00;;;;;;;19.30;53.67;99093.24;3612230;80;98428;-87
2022/09/15 14:59:48;;;;;;;20.10;1.60;;;;;;;19.23;54.05;99088.00;3682409;79;30407;-86
2022/09/15 15:04:58;;;;;;;3.33;1.52;;;;;;;19.15;54.17;99085.36;3676370;79;98463;-87
2022/09/15 15:10:06;;;;;;;1.87;0.80;;;;;;;19.00;54.14;99089.22;3670310;79;32205;-89
2022/09/15 15:15:11;;;;;;;4.33;1.55;;;;;;;18.87;54.64;99090.80;3633625;80;98181;-85
2022/09/15 15:20:17;;;;;;;4.97;1.83;;;;;;;18.77;54.48;99089.23;3627049;80;30038;-89
2022/09/15 15:25:31;;;;;;;4.60;1.37;;;;;;;18.69;55.21;99094.19;3619317;80;98164;-85
2022/09/15 15:30:45;;;;;;;2.20;0.80;;;;;;;18.68;55.45;99087.05;3624528;80;31668;-89
2022/09/15 15:36:07;;;;;;;5.22;1.27;;;;;;;18.63;55.95;99077.94;3616194;80;98419;-88
2022/09/15 15:41:19;;;;;;;6.77;1.63;;;;;;;18.53;55.84;99084.73;3607891;80;99213;-88
2022/09/15 15:46:48;;;;;;;4.20;1.70;;;;;;;18.40;55.90;99089.03;3625523;80;31673;-90
2022/09/15 15:51:54;;;;;;;3.65;1.20;;;;;;;18.34;56.51;99084.53;3594266;80;98428;-88
2022/09/15 15:57:17;;;;;;;4.00;1.40;;;;;;;18.25;56.80;99081.71;3628663;79;31735;-87
2022/09/15 16:02:19;;;;;;;6.87;1.35;;;;;;;18.22;57.64;99084.01;3605277;78;98999;-88
2022/09/15 16:07:23;;;;;;;4.40;1.45;;;;;;;18.17;57.91;99079.83;3619476;80;31839;-89
2022/09/15 16:12:24;;;;;;;8.43;1.85;;;;;;;18.12;58.37;99088.00;3608327;80;98348;-89
2022/09/15 16:17:25;;;;;;;2.87;1.27;;;;;;;18.02;58.16;99089.98;3521392;82;31057;-85
2022/09/15 16:22:26;;;;;;;3.30;1.30;;;;;;;17.97;58.83;99088.41;3581002;81;98415;-88
2022/09/15 16:27:29;;;;;;;6.60;1.30;;;;;;;17.87;59.03;99088.99;3584124;81;28055;-88
2022/09/15 16:32:31;;;;;;;4.45;1.60;;;;;;;17.75;58.60;99087.09;3580433;81;98636;-87
2022/09/15 16:37:32;;;;;;;7.72;2.90;;;;;;;17.64;58.60;99100.64;3582557;81;30607;-90
2022/09/15 16:42:33;;;;;;;5.97;2.03;;;;;;;17.53;58.67;99106.44;3557415;81;98535;-89
2022/09/15 16:47:33;;;;;;;7.33;1.60;;;;;;;17.38;58.88;99106.20;3579859;81;26882;-89
2022/09/15 16:52:34;;;;;;;6.15;1.40;;;;;;;17.25;59.52;99106.08;3572626;81;98398;-91
2022/09/15 16:57:35;;;;;;;2.50;1.03;;;;;;;17.14;60.06;99106.48;3568950;81;26627;-89
2022/09/15 17:02:36;;;;;;;5.60;1.60;;;;;;;17.01;60.22;99107.77;3581039;81;98477;-90
2022/09/15 17:07:37;;;;;;;9.40;4.43;;;;;;;16.89;60.58;99112.15;3514142;82;34807;-90
2022/09/15 17:12:38;;;;;;;7.47;3.90;;;;;;;16.78;61.47;99114.52;3573039;79;99426;-90
2022/09/15 17:17:38;;;;;;;4.60;1.90;;;;;;;16.67;62.52;99117.52;3650509;79;34018;-91
2022/09/15 17:22:39;;;;;;;5.25;2.22;;;;;;;16.52;62.96;99124.14;3544928;81;98719;-89
2022/09/15 17:27:40;;;;;;;4.87;1.85;;;;;;;16.42;64.15;99121.73;3624586;80;32186;-90
2022/09/15 17:32:42;;;;;;;3.70;2.00;;;;;;;16.33;65.03;99125.16;3627727;79;98989;-90
2022/09/15 17:37:44;;;;;;;4.56;1.78;;;;;;;16.25;65.56;99125.22;3626370;78;33033;-89
2022/09/15 17:42:46;;;;;;;5.27;2.07;;;;;;;16.12;64.76;99126.45;3622604;79;98875;-90
2022/09/15 17:47:48;;;;;;;7.60;2.70;;;;;;;16.02;66.44;99137.30;3640102;78;35593;-90
2022/09/15 17:52:50;;;;;;;8.23;2.90;;;;;;;15.92;66.88;99142.56;3642776;79;98736;-89
2022/09/15 17:57:51;;;;;;;6.67;2.22;;;;;;;15.83;67.78;99149.38;3653884;78;34716;-90
2022/09/15 18:02:59;;;;;;;5.40;1.90;;;;;;;15.70;68.02;99135.48;3637529;80;98455;-90
2022/09/15 18:08:04;;;;;;;4.70;1.50;;;;;;;15.61;68.77;99133.20;3612050;80;34851;-89
2022/09/15 18:13:06;;;;;;;4.55;1.70;;;;;;;15.52;69.07;99133.06;3655524;80;99050;-91
2022/09/15 18:18:11;;;;;;;6.75;1.82;;;;;;;15.40;69.46;99133.83;3584822;81;35968;-92
2022/09/15 18:23:16;;;;;;;6.75;1.90;;;;;;;15.28;69.83;99139.48;3597748;80;98462;-92
2022/09/15 18:28:18;;;;;;;4.15;1.62;;;;;;;15.14;69.76;99151.55;3554810;81;35006;-92
2022/09/15 18:33:25;;;;;;;4.47;1.60;;;;;;;15.05;69.65;99155.59;3538650;81;98734;-92
2022/09/15 18:38:26;;;;;;;7.45;1.65;;;;;;;14.99;69.88;99149.02;3598210;80;34821;-90
2022/09/15 18:43:27;;;;;;;4.80;1.40;;;;;;;14.92;70.31;99147.81;3572874;81;98324;-91
2022/09/15 18:48:28;;;;;;;4.57;1.70;;;;;;;14.84;70.27;99147.84;3634478;78;29090;-90
2022/09/15 18:53:34;;;;;;;4.10;1.57;;;;;;;14.84;70.76;99150.61;3619480;78;98612;-89
2022/09/15 18:58:36;;;;;;;5.25;1.80;;;;;;;14.85;71.05;99159.09;3614904;80;25813;-89
2022/09/15 19:03:38;;;;;;;4.05;1.32;;;;;;;14.85;71.30;99164.63;3600514;79;98540;-90
2022/09/15 19:08:39;;;;;;;8.73;2.33;;;;;;;14.83;71.00;99173.36;3609895;78;35351;-91
2022/09/15 19:13:41;;;;;;;4.63;1.60;;;;;;;14.86;71.02;99175.87;3645909;78;98579;-91
2022/09/15 19:18:45;;;;;;;5.90;1.63;;;;;;;14.90;71.91;99176.56;3634926;80;27258;-89
2022/09/15 19:23:46;;;;;;;7.60;2.25;;;;;;;14.94;72.23;99187.72;3636193;79;98773;-91
2022/09/15 19:28:52;;;;;;;6.35;2.00;;;;;;;14.96;72.69;99178.97;3599134;80;32953;-91
2022/09/15 19:33:53;;;;;;;7.30;2.02;;;;;;;14.98;72.91;99175.94;3685081;79;98656;-90
2022/09/15 19:38:56;;;;;;;4.53;1.33;;;;;;;14.95;72.99;99175.44;3661802;79;33667;-90
2022/09/15 19:44:01;;;;;;;4.67;1.60;;;;;;;14.93;72.92;99178.48;3668315;79;98470;-88
2022/09/15 19:49:03;;;;;;;8.68;1.67;;;;;;;14.88;72.95;99176.99;3641266;79;35083;-90
2022/09/15 19:54:04;;;;;;;5.08;1.65;;;;;;;14.83;73.09;99172.60;3638427;79;98885;-89
2022/09/15 19:59:05;;;;;;;5.30;1.42;;;;;;;14.80;73.64;99174.84;3647068;79;35193;-88
2022/09/15 20:04:08;;;;;;;3.17;1.12;;;;;;;14.77;73.86;99185.42;3645155;79;98786;-88
2022/09/15 20:09:11;;;;;;;3.67;0.90;;;;;;;14.71;73.94;99192.70;3647374;79;34850;-89
2022/09/15 20:14:13;;;;;;;1.92;0.90;;;;;;;14.65;74.04;99188.28;3640064;79;98352;-89
2022/09/15 20:19:14;;;;;;;8.48;1.32;;;;;;;14.59;74.51;99192.78;3509649;82;35438;-95
2022/09/15 20:24:18;;;;;;;3.73;0.80;;;;;;;14.53;75.24;99191.75;3575036;80;98539;-89
2022/09/15 20:29:22;;;;;;;3.42;0.80;;;;;;;14.47;74.73;99186.56;3608688;81;34801;-89
2022/09/15 20:34:23;;;;;;;4.67;1.07;;;;;;;14.40;74.85;99199.17;3609195;80;98453;-90
2022/09/15 20:39:24;;;;;;;5.05;0.88;;;;;;;14.32;75.29;99197.00;3595120;81;34874;-93
2022/09/15 20:44:25;;;;;;;3.43;1.40;;;;;;;14.23;75.68;99201.75;3608699;79;98681;-91
2022/09/15 20:49:28;;;;;;;2.80;0.80;;;;;;;14.14;75.97;99208.47;3629611;79;31953;-91
2022/09/15 20:54:29;;;;;;;3.98;1.10;;;;;;;14.09;76.19;99195.73;3579471;79;98449;-91
2022/09/15 20:59:30;;;;;;;5.17;1.30;;;;;;;14.02;76.58;99190.38;3522295;82;32032;-91
2022/09/15 21:04:32;;;;;;;6.23;1.40;;;;;;;13.91;77.40;99194.73;3586643;80;98753;-88
2022/09/15 21:09:33;;;;;;;4.37;1.40;;;;;;;13.72;77.50;99186.48;3607264;80;26828;-88
2022/09/15 21:14:34;;;;;;;3.17;1.62;;;;;;;13.75;78.28;99204.99;3610369;80;98418;-87
2022/09/15 21:19:36;;;;;;;5.57;1.37;;;;;;;13.70;78.64;99202.73;3612624;80;28187;-88
2022/09/15 21:24:37;;;;;;;5.40;1.50;;;;;;;13.62;78.70;99206.23;3615478;80;99090;-88
2022/09/15 21:29:38;;;;;;;3.43;1.10;;;;;;;13.60;78.97;99208.66;3617903;80;30175;-88
2022/09/15 21:34:39;;;;;;;3.17;1.10;;;;;;;13.59;79.02;99202.96;3606878;80;98914;-86
2022/09/15 21:39:40;;;;;;;4.37;1.10;;;;;;;13.57;79.26;99202.59;3535038;81;28188;-87
2022/09/15 21:44:41;;;;;;;4.63;1.30;;;;;;;13.55;79.56;99205.02;3607830;80;98731;-90
2022/09/15 21:49:42;;;;;;;4.47;1.90;;;;;;;13.50;79.89;99206.89;3632903;79;29768;-89
2022/09/15 21:54:43;;;;;;;3.60;1.00;;;;;;;13.46;80.27;99205.41;3592264;80;98036;-87
2022/09/15 21:59:46;;;;;;;6.67;1.67;;;;;;;13.44;80.27;99211.36;3609151;80;33136;-88
2022/09/15 22:04:49;;;;;;;5.70;1.60;;;;;;;13.37;80.55;99214.27;3589922;80;98887;-87
2022/09/15 22:09:50;;;;;;;4.03;1.33;;;;;;;13.30;80.85;99219.15;3584954;80;28630;-87
2022/09/15 22:14:51;;;;;;;4.40;1.63;;;;;;;13.19;81.07;99225.48;3602027;80;98454;-85
2022/09/15 22:19:52;;;;;;;4.10;1.30;;;;;;;13.09;81.40;99220.30;3653972;79;29589;-88
2022/09/15 22:24:52;;;;;;;5.03;1.47;;;;;;;13.05;81.79;99223.75;3643199;79;98541;-87
2022/09/15 22:29:53;;;;;;;4.83;1.20;;;;;;;12.98;82.10;99218.95;3648266;79;26799;-87
2022/09/15 22:34:54;;;;;;;3.53;1.20;;;;;;;12.74;82.96;99202.97;3641535;79;98627;-86
2022/09/15 22:39:56;;;;;;;3.73;1.23;;;;;;;12.83;83.00;99234.96;3627114;80;33071;-87
2022/09/15 22:44:59;;;;;;;3.43;0.97;;;;;;;12.78;83.40;99238.79;3600758;80;98467;-87
2022/09/15 22:50:00;;;;;;;4.67;1.20;;;;;;;12.73;83.34;99230.98;3643320;79;31038;-87
2022/09/15 22:55:02;;;;;;;4.50;1.27;;;;;;;12.71;83.57;99230.63;3633130;79;98655;-87
2022/09/15 23:00:04;;;;;;;3.03;0.90;;;;;;;12.67;84.06;99229.91;3613807;80;31050;-88
2022/09/15 23:05:06;;;;;;;3.07;1.30;;;;;;;12.65;84.20;99230.94;3677927;79;98706;-88
2022/09/15 23:10:07;;;;;;;3.85;1.22;;;;;;;12.62;84.35;99233.93;3691225;79;35304;-88
2022/09/15 23:15:09;;;;;;;6.50;1.25;;;;;;;12.51;84.67;99228.39;3682775;79;98558;-84
2022/09/15 23:20:10;;;;;;;3.60;1.20;;;;;;;12.41;84.51;99222.44;3694269;79;35599;-86
2022/09/15 23:25:11;;;;;;;3.67;1.07;;;;;;;12.51;84.83;99245.73;3689449;79;98784;-88
2022/09/15 23:30:13;;;;;;;2.45;1.27;;;;;;;12.47;85.12;99253.87;3690115;79;30052;-86
2022/09/15 23:35:14;;;;;;;4.53;1.17;;;;;;;12.45;85.25;99257.66;3677045;79;98979;-87
2022/09/15 23:40:15;;;;;;;7.67;1.40;;;;;;;12.34;85.08;99250.14;3686001;79;28185;-87
2022/09/15 23:45:16;;;;;;;4.47;1.50;;;;;;;12.25;85.54;99253.42;3670826;79;98805;-90
2022/09/15 23:50:17;;;;;;;7.83;1.23;;;;;;;12.19;86.00;99246.81;3639626;80;29001;-86
2022/09/15 23:55:17;;;;;;;7.53;2.03;;;;;;;12.12;86.11;99257.16;3619790;78;98369;-90
